Time;durP1;ratioP1;P1;durP2;ratioP2;P2;SDS_P1;SDS_P2;PMS_P1;PMS_P2;Temp;Humidity;BMP_temperature;BMP_pressure;BME280_temperature;BME280_humidity;BME280_pressure;Samples;Min_cycle;Max_cycle;Signal;HPM_P1;HPM_P2
2022/07/19 00:02:17;;;;;;;0.50;0.50;;;;;;;;;;5038665;28;20086;-79
2022/07/19 00:04:42;;;;;;;0.57;0.55;;;;;;;;;;5035891;28;20029;-80
2022/07/19 00:07:08;;;;;;;2.17;1.02;;;;;;;;;;5038505;28;20021;-79
2022/07/19 00:09:33;;;;;;;1.17;0.70;;;;;;;;;;5037995;28;20033;-80
2022/07/19 00:12:02;;;;;;;0.68;0.50;;;;;;;;;;5037324;28;20033;-80
2022/07/19 00:14:32;;;;;;;0.68;0.68;;;;;;;;;;5055341;28;20029;-80
2022/07/19 00:17:00;;;;;;;0.63;0.60;;;;;;;;;;5037996;28;20024;-80
2022/07/19 00:19:25;;;;;;;1.95;0.95;;;;;;;;;;5054935;28;20082;-80
2022/07/19 00:21:52;;;;;;;2.28;0.60;;;;;;;;;;5037637;28;20013;-80
2022/07/19 00:24:17;;;;;;;0.70;0.70;;;;;;;;;;5037793;28;20064;-80
2022/07/19 00:26:45;;;;;;;1.02;0.80;;;;;;;;;;5053698;28;20067;-80
2022/07/19 00:29:15;;;;;;;0.98;0.52;;;;;;;;;;5061055;28;20433;-80
2022/07/19 00:31:43;;;;;;;1.00;0.68;;;;;;;;;;5047832;28;20036;-79
2022/07/19 00:34:12;;;;;;;1.58;1.20;;;;;;;;;;5036411;28;20104;-79
2022/07/19 00:36:37;;;;;;;0.88;0.88;;;;;;;;;;5037851;28;20382;-80
2022/07/19 00:39:06;;;;;;;1.85;0.93;;;;;;;;;;5037697;28;20048;-80
2022/07/19 00:41:40;;;;;;;1.50;0.70;;;;;;;;;;5036905;28;20430;-80
2022/07/19 00:44:06;;;;;;;1.50;1.35;;;;;;;;;;5038302;28;20059;-81
2022/07/19 00:46:35;;;;;;;1.73;0.93;;;;;;;;;;5037551;28;20024;-79
2022/07/19 00:49:00;;;;;;;0.93;0.75;;;;;;;;;;5032119;28;20083;-80
2022/07/19 00:51:30;;;;;;;1.35;0.77;;;;;;;;;;5035998;28;20040;-80
2022/07/19 00:54:03;;;;;;;0.50;0.50;;;;;;;;;;5036092;28;20528;-79
2022/07/19 00:56:32;;;;;;;3.67;1.15;;;;;;;;;;5035582;28;20465;-80
2022/07/19 00:59:06;;;;;;;0.50;0.50;;;;;;;;;;5019202;28;20040;-80
2022/07/19 01:01:34;;;;;;;1.85;0.88;;;;;;;;;;5036430;28;20041;-80
2022/07/19 01:03:59;;;;;;;0.88;0.63;;;;;;;;;;5052007;28;20029;-81
2022/07/19 01:06:25;;;;;;;1.48;0.77;;;;;;;;;;5034343;28;20041;-80
2022/07/19 01:08:53;;;;;;;1.55;0.70;;;;;;;;;;5034273;28;20032;-79
2022/07/19 01:11:19;;;;;;;1.67;0.88;;;;;;;;;;5035478;28;20105;-81
2022/07/19 01:13:48;;;;;;;3.30;0.85;;;;;;;;;;5038040;28;20036;-80
2022/07/19 01:16:13;;;;;;;0.57;0.57;;;;;;;;;;5055800;28;20033;-81
2022/07/19 01:18:39;;;;;;;0.70;0.70;;;;;;;;;;5055089;28;20067;-80
2022/07/19 01:21:04;;;;;;;0.70;0.57;;;;;;;;;;5072856;28;20465;-80
2022/07/19 01:23:30;;;;;;;1.20;0.65;;;;;;;;;;5038326;28;20118;-80
2022/07/19 01:25:58;;;;;;;0.45;0.45;;;;;;;;;;5037038;28;20036;-81
2022/07/19 01:28:24;;;;;;;2.50;1.20;;;;;;;;;;5051336;28;20026;-81
2022/07/19 01:30:53;;;;;;;1.63;1.13;;;;;;;;;;5030533;28;20463;-81
2022/07/19 01:33:18;;;;;;;0.90;0.90;;;;;;;;;;5032588;28;20452;-79
2022/07/19 01:35:46;;;;;;;0.60;0.60;;;;;;;;;;4998355;28;20152;-80
2022/07/19 01:38:11;;;;;;;3.55;0.70;;;;;;;;;;5027973;28;20026;-80
2022/07/19 01:40:40;;;;;;;0.73;0.68;;;;;;;;;;5032821;28;20542;-79
2022/07/19 01:43:09;;;;;;;0.70;0.70;;;;;;;;;;5016605;28;20438;-79
2022/07/19 01:45:37;;;;;;;0.70;0.70;;;;;;;;;;5023488;28;20136;-79
2022/07/19 01:48:05;;;;;;;1.88;0.60;;;;;;;;;;5041760;28;20037;-82
2022/07/19 01:50:30;;;;;;;0.50;0.50;;;;;;;;;;5031550;28;20653;-81
2022/07/19 01:53:04;;;;;;;1.20;0.88;;;;;;;;;;5021649;28;20132;-81
2022/07/19 01:55:31;;;;;;;1.17;0.93;;;;;;;;;;5048061;28;20347;-81
2022/07/19 01:57:57;;;;;;;1.65;0.77;;;;;;;;;;5012179;28;20029;-81
2022/07/19 02:00:26;;;;;;;0.93;0.70;;;;;;;;;;5024924;28;20033;-81
2022/07/19 02:02:57;;;;;;;0.98;0.82;;;;;;;;;;5041896;28;20052;-80
2022/07/19 02:05:24;;;;;;;1.55;1.15;;;;;;;;;;5027360;28;20033;-80
2022/07/19 02:07:49;;;;;;;3.53;0.90;;;;;;;;;;5045016;28;20446;-81
2022/07/19 02:10:16;;;;;;;1.63;0.98;;;;;;;;;;5036327;28;20025;-80
2022/07/19 02:12:43;;;;;;;0.32;0.32;;;;;;;;;;5034286;28;20083;-80
2022/07/19 02:15:11;;;;;;;0.60;0.50;;;;;;;;;;5036223;28;20132;-80
2022/07/19 02:17:37;;;;;;;1.00;0.73;;;;;;;;;;5036289;28;20098;-80
2022/07/19 02:20:03;;;;;;;0.60;0.60;;;;;;;;;;5035812;28;20403;-81
2022/07/19 02:22:29;;;;;;;1.13;0.73;;;;;;;;;;5051555;28;20036;-80
2022/07/19 02:24:54;;;;;;;1.85;1.40;;;;;;;;;;5034892;28;20025;-80
2022/07/19 02:27:21;;;;;;;0.80;0.55;;;;;;;;;;5035175;28;20379;-80
2022/07/19 02:29:46;;;;;;;1.13;0.68;;;;;;;;;;5035926;28;20095;-80
2022/07/19 02:32:12;;;;;;;1.48;0.88;;;;;;;;;;5035478;28;20032;-80
2022/07/19 02:34:37;;;;;;;1.17;0.57;;;;;;;;;;5036170;28;20337;-80
2022/07/19 02:37:03;;;;;;;2.55;0.70;;;;;;;;;;5050405;28;20037;-80
2022/07/19 02:39:32;;;;;;;1.35;0.85;;;;;;;;;;5035961;28;20021;-80
2022/07/19 02:41:57;;;;;;;1.45;0.82;;;;;;;;;;5027510;28;20078;-81
2022/07/19 02:44:23;;;;;;;0.90;0.60;;;;;;;;;;5035726;28;20049;-80
2022/07/19 02:46:48;;;;;;;1.63;1.35;;;;;;;;;;5044675;28;20021;-78
2022/07/19 02:49:14;;;;;;;1.08;0.60;;;;;;;;;;5052833;28;20021;-80
2022/07/19 02:51:41;;;;;;;0.82;0.80;;;;;;;;;;5035997;28;20039;-80
2022/07/19 02:54:11;;;;;;;1.73;0.63;;;;;;;;;;5052453;28;20053;-81
2022/07/19 02:56:37;;;;;;;0.70;0.68;;;;;;;;;;5036522;28;20481;-80
2022/07/19 02:59:08;;;;;;;0.63;0.50;;;;;;;;;;5039671;28;20053;-79
2022/07/19 03:01:34;;;;;;;3.15;1.00;;;;;;;;;;5055150;28;20768;-79
2022/07/19 03:04:02;;;;;;;0.57;0.57;;;;;;;;;;5038970;28;20040;-79
2022/07/19 03:06:29;;;;;;;1.23;0.73;;;;;;;;;;5036376;28;20047;-79
2022/07/19 03:08:57;;;;;;;3.03;0.75;;;;;;;;;;5055754;28;20361;-80
2022/07/19 03:11:25;;;;;;;0.75;0.70;;;;;;;;;;5053110;28;20036;-80
2022/07/19 03:13:50;;;;;;;0.70;0.70;;;;;;;;;;5039684;28;20025;-81
2022/07/19 03:16:16;;;;;;;1.38;0.95;;;;;;;;;;5049387;28;20439;-78
2022/07/19 03:18:43;;;;;;;0.73;0.73;;;;;;;;;;5056714;28;20036;-81
2022/07/19 03:21:09;;;;;;;1.67;0.80;;;;;;;;;;5039284;28;20075;-80
2022/07/19 03:23:37;;;;;;;1.88;1.05;;;;;;;;;;5039224;28;20377;-80
2022/07/19 03:26:03;;;;;;;1.88;1.17;;;;;;;;;;5039469;28;20115;-80
2022/07/19 03:28:29;;;;;;;0.70;0.70;;;;;;;;;;5055237;28;20028;-81
2022/07/19 03:30:57;;;;;;;3.00;0.77;;;;;;;;;;5039146;28;20395;-80
2022/07/19 03:33:25;;;;;;;0.47;0.47;;;;;;;;;;5054780;28;20471;-79
2022/07/19 03:35:50;;;;;;;1.08;0.90;;;;;;;;;;5040523;28;20035;-80
2022/07/19 03:38:16;;;;;;;1.13;0.95;;;;;;;;;;5040553;28;20029;-80
2022/07/19 03:40:43;;;;;;;0.82;0.82;;;;;;;;;;5040707;28;20029;-80
2022/07/19 03:43:11;;;;;;;1.42;1.13;;;;;;;;;;5049893;28;20505;-79
2022/07/19 03:45:36;;;;;;;1.20;1.08;;;;;;;;;;5038783;28;20450;-82
2022/07/19 03:48:54;;;;;;;1.55;1.08;;;;;;;;;;5055542;28;20039;-80
2022/07/19 03:51:57;;;;;;;2.72;1.40;;;;;;;;;;5053520;28;20430;-81
2022/07/19 03:54:25;;;;;;;0.82;0.75;;;;;;;;;;5038618;28;20422;-80
2022/07/19 03:56:55;;;;;;;1.42;0.70;;;;;;;;;;5038643;28;20033;-81
2022/07/19 03:59:52;;;;;;;2.42;1.00;;;;;;;;;;5038775;28;20039;-83
2022/07/19 04:02:18;;;;;;;3.72;0.57;;;;;;;;;;5037231;28;20032;-80
2022/07/19 04:04:45;;;;;;;1.67;0.77;;;;;;;;;;5054217;28;20029;-79
2022/07/19 04:07:11;;;;;;;2.08;0.82;;;;;;;;;;5053785;28;20025;-79
2022/07/19 04:09:36;;;;;;;1.00;0.90;;;;;;;;;;5028081;28;20633;-80
2022/07/19 04:12:02;;;;;;;0.70;0.70;;;;;;;;;;5038701;28;20094;-80
2022/07/19 04:14:30;;;;;;;1.52;1.20;;;;;;;;;;5037429;28;20039;-80
2022/07/19 04:16:55;;;;;;;1.20;1.13;;;;;;;;;;5054769;28;20430;-80
2022/07/19 04:19:20;;;;;;;1.27;0.90;;;;;;;;;;5037280;28;20025;-81
2022/07/19 04:21:49;;;;;;;1.88;1.08;;;;;;;;;;5038176;28;20028;-80
2022/07/19 04:24:15;;;;;;;2.60;1.05;;;;;;;;;;5053643;28;20036;-79
2022/07/19 04:26:42;;;;;;;1.58;1.05;;;;;;;;;;5037630;28;20029;-80
2022/07/19 04:29:08;;;;;;;1.90;0.90;;;;;;;;;;5053401;28;20472;-80
2022/07/19 04:31:40;;;;;;;2.05;1.00;;;;;;;;;;5036590;28;20029;-81
2022/07/19 04:34:08;;;;;;;1.70;1.00;;;;;;;;;;5038619;28;20021;-80
2022/07/19 04:36:36;;;;;;;2.30;1.48;;;;;;;;;;5037298;28;20027;-79
2022/07/19 04:39:01;;;;;;;1.27;0.80;;;;;;;;;;5038661;28;20409;-79
2022/07/19 04:41:26;;;;;;;0.38;0.38;;;;;;;;;;5037716;28;20047;-79
2022/07/19 04:43:54;;;;;;;0.60;0.60;;;;;;;;;;5055890;28;20035;-81
2022/07/19 04:46:22;;;;;;;1.70;0.93;;;;;;;;;;5038353;28;20017;-80
2022/07/19 04:48:49;;;;;;;1.70;0.98;;;;;;;;;;5037742;28;20522;-80
2022/07/19 04:51:15;;;;;;;1.50;0.75;;;;;;;;;;5038103;28;20032;-80
2022/07/19 04:53:40;;;;;;;1.23;0.70;;;;;;;;;;5054017;28;20104;-81
2022/07/19 04:56:18;;;;;;;1.27;1.10;;;;;;;;;;5055601;28;20022;-80
2022/07/19 04:58:46;;;;;;;1.52;0.88;;;;;;;;;;5034792;28;20039;-79
2022/07/19 05:01:13;;;;;;;2.03;0.98;;;;;;;;;;5049686;28;20032;-80
2022/07/19 05:03:39;;;;;;;1.55;1.00;;;;;;;;;;5037084;28;20053;-80
2022/07/19 05:06:04;;;;;;;1.13;1.08;;;;;;;;;;5054414;28;20482;-80
2022/07/19 05:08:30;;;;;;;0.52;0.52;;;;;;;;;;5038251;28;20030;-79
2022/07/19 05:11:00;;;;;;;0.80;0.52;;;;;;;;;;5055390;28;20089;-80
2022/07/19 05:13:25;;;;;;;1.30;0.80;;;;;;;;;;5033955;28;20057;-80
2022/07/19 05:15:51;;;;;;;0.82;0.60;;;;;;;;;;5034372;28;20064;-81
2022/07/19 05:18:16;;;;;;;1.63;1.17;;;;;;;;;;5034351;28;20397;-81
2022/07/19 05:20:44;;;;;;;2.53;1.13;;;;;;;;;;5034099;28;20017;-81
2022/07/19 05:23:09;;;;;;;1.30;0.80;;;;;;;;;;5048040;28;20025;-82
2022/07/19 05:25:35;;;;;;;3.15;1.05;;;;;;;;;;5037882;28;20028;-81
2022/07/19 05:28:00;;;;;;;1.95;0.80;;;;;;;;;;5037649;28;20021;-81
2022/07/19 05:30:28;;;;;;;0.30;0.30;;;;;;;;;;5059821;28;20693;-79
2022/07/19 05:32:58;;;;;;;0.50;0.50;;;;;;;;;;5055482;28;20111;-81
2022/07/19 05:35:25;;;;;;;0.88;0.85;;;;;;;;;;5070579;28;20057;-80
2022/07/19 05:37:51;;;;;;;1.30;0.85;;;;;;;;;;5054742;28;20104;-81
2022/07/19 05:40:19;;;;;;;0.50;0.50;;;;;;;;;;5037000;28;20103;-80
2022/07/19 05:42:44;;;;;;;2.17;1.65;;;;;;;;;;5052837;28;20116;-80
2022/07/19 05:45:10;;;;;;;2.42;1.17;;;;;;;;;;5034589;28;20108;-80
2022/07/19 05:47:37;;;;;;;4.03;0.93;;;;;;;;;;5053886;28;20035;-79
2022/07/19 05:50:03;;;;;;;1.35;1.00;;;;;;;;;;5053403;28;20025;-80
2022/07/19 05:52:31;;;;;;;1.75;1.10;;;;;;;;;;5042116;28;20118;-80
2022/07/19 05:54:58;;;;;;;1.27;0.77;;;;;;;;;;5053575;28;20362;-80
2022/07/19 05:57:26;;;;;;;0.63;0.60;;;;;;;;;;5036849;28;20029;-80
2022/07/19 05:59:53;;;;;;;2.22;1.15;;;;;;;;;;5036451;28;20027;-80
2022/07/19 06:02:21;;;;;;;0.95;0.73;;;;;;;;;;5054078;28;20078;-80
2022/07/19 06:04:46;;;;;;;2.53;0.80;;;;;;;;;;5052622;28;20467;-80
2022/07/19 06:07:16;;;;;;;0.60;0.60;;;;;;;;;;5038274;28;20048;-80
2022/07/19 06:09:44;;;;;;;0.57;0.57;;;;;;;;;;5053123;28;20020;-80
2022/07/19 06:12:09;;;;;;;1.27;0.88;;;;;;;;;;5053612;28;20098;-80
2022/07/19 06:14:35;;;;;;;1.30;0.70;;;;;;;;;;5052116;28;20371;-80
2022/07/19 06:17:00;;;;;;;2.40;0.75;;;;;;;;;;5019397;28;20041;-80
2022/07/19 06:19:26;;;;;;;1.17;1.00;;;;;;;;;;5015762;28;20041;-81
2022/07/19 06:21:53;;;;;;;1.80;1.35;;;;;;;;;;5030614;28;20024;-81
2022/07/19 06:24:21;;;;;;;4.78;1.17;;;;;;;;;;5023783;28;20037;-80
2022/07/19 06:26:48;;;;;;;1.15;1.05;;;;;;;;;;5024834;28;20478;-81
2022/07/19 06:29:16;;;;;;;1.13;0.90;;;;;;;;;;5013331;28;20025;-80
2022/07/19 06:31:41;;;;;;;3.45;1.02;;;;;;;;;;5032268;28;20029;-82
2022/07/19 06:34:13;;;;;;;1.90;0.82;;;;;;;;;;5029803;28;20504;-81
2022/07/19 06:36:38;;;;;;;0.70;0.65;;;;;;;;;;5019920;28;20025;-80
2022/07/19 06:39:07;;;;;;;1.92;1.10;;;;;;;;;;5037582;28;20040;-80
2022/07/19 06:41:34;;;;;;;3.25;1.38;;;;;;;;;;5022564;28;20035;-83
2022/07/19 06:44:00;;;;;;;6.03;1.25;;;;;;;;;;5037659;28;20032;-81
2022/07/19 06:46:31;;;;;;;1.23;1.05;;;;;;;;;;5038795;28;20343;-82
2022/07/19 06:49:01;;;;;;;8.05;1.88;;;;;;;;;;5023035;28;20072;-82
2022/07/19 06:51:26;;;;;;;1.23;1.10;;;;;;;;;;5038626;28;20056;-81
2022/07/19 06:54:03;;;;;;;1.95;0.90;;;;;;;;;;5055137;28;20067;-82
2022/07/19 06:56:30;;;;;;;1.10;0.77;;;;;;;;;;5036825;28;20041;-81
2022/07/19 06:58:57;;;;;;;1.70;1.40;;;;;;;;;;5039954;28;20059;-82
2022/07/19 07:01:23;;;;;;;1.00;0.93;;;;;;;;;;5034308;28;20056;-83
2022/07/19 07:03:48;;;;;;;0.65;0.52;;;;;;;;;;5022555;28;20025;-83
2022/07/19 07:06:19;;;;;;;1.10;1.00;;;;;;;;;;5039027;28;20024;-84
2022/07/19 07:08:47;;;;;;;0.75;0.52;;;;;;;;;;5038761;28;20120;-84
2022/07/19 07:11:13;;;;;;;0.98;0.80;;;;;;;;;;5053787;28;20037;-83
2022/07/19 07:13:39;;;;;;;1.60;0.95;;;;;;;;;;5053630;28;20362;-82
2022/07/19 07:16:04;;;;;;;1.92;1.05;;;;;;;;;;5022377;28;20021;-80
2022/07/19 07:18:30;;;;;;;1.02;0.82;;;;;;;;;;5039126;28;20040;-79
2022/07/19 07:21:04;;;;;;;0.93;0.70;;;;;;;;;;4998261;28;20041;-79
2022/07/19 07:23:54;;;;;;;1.33;1.20;;;;;;;;;;4981081;28;20162;-80
2022/07/19 07:26:37;;;;;;;0.63;0.63;;;;;;;;;;4965711;28;20075;-81
2022/07/19 07:29:03;;;;;;;1.08;0.90;;;;;;;;;;4982048;28;20046;-80
2022/07/19 07:34:14;;;;;;;1.13;0.98;;;;;;;;;;4994710;28;20060;-80
2022/07/19 07:36:49;;;;;;;1.05;0.80;;;;;;;;;;4995378;28;20528;-80
2022/07/19 07:39:27;;;;;;;0.75;0.70;;;;;;;;;;4978199;28;20065;-80
2022/07/19 07:41:56;;;;;;;2.47;0.70;;;;;;;;;;4979246;28;20498;-86
2022/07/19 07:44:47;;;;;;;1.05;0.80;;;;;;;;;;4977833;28;20030;-80
2022/07/19 07:47:25;;;;;;;1.73;1.17;;;;;;;;;;4995205;28;20477;-81
2022/07/19 07:49:54;;;;;;;0.90;0.80;;;;;;;;;;4991749;28;20082;-78
2022/07/19 07:52:28;;;;;;;0.70;0.70;;;;;;;;;;5008245;28;20432;-81
2022/07/19 07:54:56;;;;;;;1.88;1.17;;;;;;;;;;5014079;28;20372;-81
2022/07/19 07:57:26;;;;;;;1.10;1.00;;;;;;;;;;4982233;28;20446;-84
2022/07/19 07:59:52;;;;;;;0.80;0.70;;;;;;;;;;4998635;28;20036;-83
2022/07/19 08:02:43;;;;;;;0.82;0.80;;;;;;;;;;4978272;28;20037;-81
2022/07/19 08:05:27;;;;;;;1.13;0.60;;;;;;;;;;4982408;28;20447;-82
2022/07/19 08:07:53;;;;;;;0.98;0.90;;;;;;;;;;5012031;28;20126;-81
2022/07/19 08:10:23;;;;;;;1.70;0.82;;;;;;;;;;5032702;28;20033;-81
2022/07/19 08:12:48;;;;;;;0.63;0.63;;;;;;;;;;5055171;28;20024;-81
2022/07/19 08:15:14;;;;;;;0.82;0.80;;;;;;;;;;5037095;28;20096;-87
2022/07/19 08:17:39;;;;;;;1.17;0.73;;;;;;;;;;5035920;28;20132;-87
2022/07/19 08:20:05;;;;;;;0.82;0.68;;;;;;;;;;5049533;28;20095;-87
2022/07/19 08:22:35;;;;;;;0.88;0.63;;;;;;;;;;5056398;28;20453;-88
2022/07/19 08:25:01;;;;;;;0.50;0.50;;;;;;;;;;5056212;28;20028;-89
2022/07/19 08:27:28;;;;;;;4.25;1.77;;;;;;;;;;5048137;28;21837;-86
2022/07/19 08:29:56;;;;;;;0.60;0.60;;;;;;;;;;5053654;28;20013;-88
2022/07/19 08:32:24;;;;;;;1.88;0.65;;;;;;;;;;5055326;28;20021;-87
2022/07/19 08:34:55;;;;;;;0.70;0.70;;;;;;;;;;5056449;28;20430;-90
2022/07/19 08:37:22;;;;;;;1.13;0.80;;;;;;;;;;5058022;28;20031;-88
2022/07/19 08:39:48;;;;;;;0.60;0.60;;;;;;;;;;5067432;28;20037;-83
2022/07/19 08:42:18;;;;;;;1.08;1.00;;;;;;;;;;5067806;28;20075;-88
2022/07/19 08:44:43;;;;;;;0.63;0.60;;;;;;;;;;5058825;28;20104;-83
2022/07/19 08:47:11;;;;;;;0.43;0.43;;;;;;;;;;5060684;28;20037;-90
2022/07/19 08:49:42;;;;;;;0.45;0.45;;;;;;;;;;5067020;28;20087;-89
2022/07/19 08:52:07;;;;;;;0.60;0.60;;;;;;;;;;5057770;28;20059;-90
2022/07/19 08:54:33;;;;;;;1.17;0.70;;;;;;;;;;5055729;28;20545;-89
2022/07/19 08:59:43;;;;;;;0.40;0.40;;;;;;;;;;5054877;28;20043;-89
2022/07/19 09:02:08;;;;;;;2.83;1.42;;;;;;;;;;5055664;28;20029;-87
2022/07/19 09:04:36;;;;;;;3.30;1.58;;;;;;;;;;5055306;28;20112;-90
2022/07/19 09:07:04;;;;;;;0.50;0.50;;;;;;;;;;5061785;28;20042;-87
2022/07/19 09:09:34;;;;;;;0.47;0.47;;;;;;;;;;5053894;28;20025;-88
2022/07/19 09:12:03;;;;;;;0.45;0.45;;;;;;;;;;5047201;28;20022;-88
2022/07/19 09:14:30;;;;;;;0.77;0.77;;;;;;;;;;5055086;28;20021;-89
2022/07/19 09:16:57;;;;;;;0.40;0.40;;;;;;;;;;5051713;28;20025;-88
2022/07/19 09:19:25;;;;;;;0.40;0.40;;;;;;;;;;5055150;28;20079;-90
2022/07/19 09:22:27;;;;;;;0.70;0.60;;;;;;;;;;5032415;28;20047;-88
2022/07/19 09:24:56;;;;;;;0.35;0.32;;;;;;;;;;4958158;28;20105;-86
2022/07/19 09:27:23;;;;;;;0.63;0.63;;;;;;;;;;4954702;29;20326;-90
2022/07/19 09:29:56;;;;;;;0.47;0.47;;;;;;;;;;4970922;28;20042;-82
2022/07/19 09:32:23;;;;;;;0.82;0.80;;;;;;;;;;4973135;28;20499;-86
2022/07/19 09:34:53;;;;;;;0.63;0.52;;;;;;;;;;4973577;28;20443;-90
2022/07/19 09:37:27;;;;;;;0.60;0.60;;;;;;;;;;4953514;28;20369;-88
2022/07/19 09:39:57;;;;;;;0.43;0.43;;;;;;;;;;4938933;28;20071;-90
2022/07/19 09:42:34;;;;;;;0.90;0.90;;;;;;;;;;4949981;29;20485;-88
2022/07/19 09:45:09;;;;;;;1.88;0.90;;;;;;;;;;4929448;29;20152;-90
2022/07/19 09:47:36;;;;;;;0.55;0.55;;;;;;;;;;4934728;28;20513;-86
2022/07/19 09:50:05;;;;;;;1.95;0.50;;;;;;;;;;4952519;28;20153;-84
2022/07/19 09:52:33;;;;;;;1.33;1.15;;;;;;;;;;4954984;28;20048;-85
2022/07/19 09:55:00;;;;;;;1.30;1.20;;;;;;;;;;4938055;28;20035;-88
2022/07/19 09:57:26;;;;;;;0.95;0.77;;;;;;;;;;4954678;28;20072;-88
2022/07/19 09:59:54;;;;;;;1.00;0.90;;;;;;;;;;4936015;29;20111;-86
2022/07/19 10:02:22;;;;;;;0.82;0.70;;;;;;;;;;5020380;28;20041;-87
2022/07/19 10:05:03;;;;;;;0.80;0.80;;;;;;;;;;5033420;28;20029;-88
2022/07/19 10:10:25;;;;;;;0.50;0.50;;;;;;;;;;5056391;28;20343;-88
2022/07/19 10:12:51;;;;;;;2.08;0.98;;;;;;;;;;5053878;28;20063;-89
2022/07/19 10:15:21;;;;;;;1.52;0.85;;;;;;;;;;5053166;28;20033;-89
2022/07/19 10:18:12;;;;;;;0.52;0.40;;;;;;;;;;5077371;28;20108;-86
2022/07/19 10:20:38;;;;;;;;;;;;;;;;;;5066143;28;20051;-89
2022/07/19 10:23:05;;;;;;;0.73;0.73;;;;;;;;;;5067748;28;19976;-87
2022/07/19 10:25:48;;;;;;;0.60;0.60;;;;;;;;;;5068157;28;20025;-88
2022/07/19 10:28:31;;;;;;;0.80;0.63;;;;;;;;;;5057928;28;20029;-92
2022/07/19 10:31:27;;;;;;;0.80;0.70;;;;;;;;;;5057324;28;20049;-91
2022/07/19 10:34:21;;;;;;;0.73;0.60;;;;;;;;;;5040231;28;20036;-89
2022/07/19 10:39:35;;;;;;;0.70;0.60;;;;;;;;;;5039029;28;20421;-87
2022/07/19 10:42:23;;;;;;;0.30;0.30;;;;;;;;;;5037853;28;20056;-86
2022/07/19 10:45:38;;;;;;;0.50;0.50;;;;;;;;;;5061039;28;20036;-90
2022/07/19 10:48:47;;;;;;;0.63;0.63;;;;;;;;;;4988683;28;20349;-87
2022/07/19 10:51:30;;;;;;;0.45;0.45;;;;;;;;;;4975005;28;20440;-88
2022/07/19 10:54:12;;;;;;;0.98;0.80;;;;;;;;;;4952862;28;20437;-84
2022/07/19 10:56:55;;;;;;;1.25;0.90;;;;;;;;;;4958009;28;20144;-85
2022/07/19 10:59:41;;;;;;;2.35;0.73;;;;;;;;;;5013753;28;20086;-85
2022/07/19 11:02:23;;;;;;;0.73;0.63;;;;;;;;;;5052705;28;20025;-87
2022/07/19 11:05:01;;;;;;;0.93;0.85;;;;;;;;;;5053466;28;20037;-87
2022/07/19 11:11:13;;;;;;;0.60;0.50;;;;;;;;;;4977092;28;20546;-88
2022/07/19 11:13:50;;;;;;;0.60;0.60;;;;;;;;;;5016484;28;20037;-87
2022/07/19 11:16:16;;;;;;;0.50;0.50;;;;;;;;;;5053139;28;20444;-90
2022/07/19 11:18:43;;;;;;;0.70;0.63;;;;;;;;;;5054232;28;20100;-85
2022/07/19 11:21:12;;;;;;;0.65;0.60;;;;;;;;;;5049973;28;20029;-88
2022/07/19 11:23:39;;;;;;;0.43;0.43;;;;;;;;;;5056477;28;20351;-88
2022/07/19 11:26:12;;;;;;;2.55;1.15;;;;;;;;;;5072897;28;20039;-93
2022/07/19 11:28:42;;;;;;;0.50;0.50;;;;;;;;;;5050947;28;20032;-87
2022/07/19 11:31:21;;;;;;;1.20;1.00;;;;;;;;;;5055283;28;20025;-89
2022/07/19 11:33:48;;;;;;;0.90;0.68;;;;;;;;;;5001925;28;20045;-89
2022/07/19 11:36:34;;;;;;;1.20;0.80;;;;;;;;;;5038002;28;20035;-91
2022/07/19 11:39:03;;;;;;;0.68;0.68;;;;;;;;;;5056896;28;20399;-87
2022/07/19 11:41:32;;;;;;;0.50;0.50;;;;;;;;;;5056235;28;20041;-86
2022/07/19 11:44:05;;;;;;;0.60;0.57;;;;;;;;;;5056385;28;20029;-91
2022/07/19 11:46:38;;;;;;;0.40;0.40;;;;;;;;;;5056609;28;20060;-87
2022/07/19 11:49:10;;;;;;;0.65;0.60;;;;;;;;;;5057211;28;20112;-88
2022/07/19 11:51:41;;;;;;;0.50;0.50;;;;;;;;;;5056454;28;20032;-86
2022/07/19 11:54:09;;;;;;;0.70;0.70;;;;;;;;;;5057218;28;20057;-88
2022/07/19 11:56:35;;;;;;;1.20;1.05;;;;;;;;;;5055714;28;20017;-87
2022/07/19 11:59:07;;;;;;;0.82;0.82;;;;;;;;;;5056010;28;20462;-87
2022/07/19 12:01:34;;;;;;;0.60;0.60;;;;;;;;;;5056206;28;20033;-86
2022/07/19 12:04:03;;;;;;;0.85;0.70;;;;;;;;;;5040350;28;20021;-87
2022/07/19 12:06:38;;;;;;;1.05;0.98;;;;;;;;;;5054911;28;20071;-89
2022/07/19 12:09:07;;;;;;;1.38;1.27;;;;;;;;;;5056572;28;20013;-88
2022/07/19 12:11:45;;;;;;;0.60;0.60;;;;;;;;;;5039273;28;20036;-89
2022/07/19 12:14:28;;;;;;;0.80;0.80;;;;;;;;;;5056261;28;20028;-89
2022/07/19 12:17:14;;;;;;;1.35;0.70;;;;;;;;;;5074017;28;20481;-90
2022/07/19 12:19:45;;;;;;;0.80;0.80;;;;;;;;;;5076092;28;20035;-89
2022/07/19 12:22:34;;;;;;;0.60;0.60;;;;;;;;;;5068533;28;20021;-90
2022/07/19 12:25:08;;;;;;;0.80;0.80;;;;;;;;;;5064656;28;20493;-91
2022/07/19 12:27:36;;;;;;;0.65;0.63;;;;;;;;;;5035315;28;20032;-88
2022/07/19 12:30:04;;;;;;;0.73;0.73;;;;;;;;;;5017094;28;20057;-89
2022/07/19 12:32:32;;;;;;;6.05;3.13;;;;;;;;;;5035383;28;20041;-86
2022/07/19 12:35:11;;;;;;;1.15;1.10;;;;;;;;;;5038466;28;20442;-89
2022/07/19 12:37:46;;;;;;;0.85;0.85;;;;;;;;;;5039456;28;20037;-90
2022/07/19 12:40:24;;;;;;;0.90;0.90;;;;;;;;;;5023474;28;20037;-89
2022/07/19 12:43:03;;;;;;;0.70;0.70;;;;;;;;;;5022917;28;20037;-91
2022/07/19 12:45:49;;;;;;;1.10;1.00;;;;;;;;;;5019291;28;20442;-88
2022/07/19 12:48:18;;;;;;;0.68;0.68;;;;;;;;;;5003944;28;20045;-89
2022/07/19 12:50:53;;;;;;;0.67;0.67;;;;;;;;;;5004278;28;20197;-90
2022/07/19 12:53:20;;;;;;;0.60;0.60;;;;;;;;;;5020582;28;20025;-89
2022/07/19 12:55:55;;;;;;;0.63;0.63;;;;;;;;;;5034257;28;20041;-87
2022/07/19 13:01:24;;;;;;;1.05;0.93;;;;;;;;;;5049902;28;20067;-92
2022/07/19 13:03:53;;;;;;;2.15;1.33;;;;;;;;;;5058370;28;20446;-91
2022/07/19 13:06:18;;;;;;;0.40;0.40;;;;;;;;;;5057279;28;20099;-91
2022/07/19 13:08:44;;;;;;;1.48;0.90;;;;;;;;;;5037925;28;20112;-87
2022/07/19 13:11:11;;;;;;;0.50;0.50;;;;;;;;;;5055215;28;20017;-91
2022/07/19 13:13:37;;;;;;;9.57;0.75;;;;;;;;;;5055685;28;20096;-90
2022/07/19 13:16:05;;;;;;;0.70;0.60;;;;;;;;;;5055539;28;20048;-89
2022/07/19 13:18:30;;;;;;;0.57;0.57;;;;;;;;;;5055424;28;20020;-91
2022/07/19 13:20:56;;;;;;;0.70;0.70;;;;;;;;;;5036504;28;20032;-92
2022/07/19 13:23:24;;;;;;;0.68;0.68;;;;;;;;;;5049662;28;20068;-91
2022/07/19 13:25:50;;;;;;;0.55;0.40;;;;;;;;;;5054897;28;20035;-91
2022/07/19 13:28:23;;;;;;;1.17;1.05;;;;;;;;;;5051634;28;20363;-90
2022/07/19 13:30:49;;;;;;;4.13;1.02;;;;;;;;;;5053052;28;20205;-91
2022/07/19 13:33:17;;;;;;;1.05;0.85;;;;;;;;;;5070281;28;20052;-89
2022/07/19 13:35:42;;;;;;;0.80;0.80;;;;;;;;;;5058510;28;20013;-89
2022/07/19 13:38:08;;;;;;;1.30;1.20;;;;;;;;;;5060867;28;20033;-89
2022/07/19 13:40:33;;;;;;;3.67;1.13;;;;;;;;;;5069902;28;20025;-89
2022/07/19 13:42:58;;;;;;;0.50;0.50;;;;;;;;;;5065411;28;20056;-84
2022/07/19 13:45:33;;;;;;;0.88;0.70;;;;;;;;;;5068772;28;20454;-85
2022/07/19 13:47:58;;;;;;;0.80;0.70;;;;;;;;;;5065877;28;20045;-89
2022/07/19 13:50:25;;;;;;;0.60;0.60;;;;;;;;;;5059741;28;20028;-90
2022/07/19 13:52:53;;;;;;;0.63;0.57;;;;;;;;;;5055700;28;20021;-87
2022/07/19 13:55:19;;;;;;;0.60;0.60;;;;;;;;;;5038879;28;20024;-88
2022/07/19 13:57:49;;;;;;;0.60;0.60;;;;;;;;;;5060302;28;20050;-90
2022/07/19 14:00:17;;;;;;;;;;;;;;;;;;5054354;28;20212;-80
2022/07/19 14:02:46;;;;;;;0.80;0.80;;;;;;;;;;5066455;28;20007;-88
2022/07/19 14:05:13;;;;;;;0.68;0.68;;;;;;;;;;5058781;28;20079;-89
2022/07/19 14:07:39;;;;;;;0.60;0.57;;;;;;;;;;5054862;28;20029;-89
2022/07/19 14:10:05;;;;;;;0.50;0.50;;;;;;;;;;5054471;28;20146;-88
2022/07/19 14:12:30;;;;;;;0.50;0.50;;;;;;;;;;5053686;28;20470;-88
2022/07/19 14:14:56;;;;;;;0.68;0.68;;;;;;;;;;5054535;28;20040;-86
2022/07/19 14:17:21;;;;;;;1.13;0.90;;;;;;;;;;5059356;28;20382;-88
2022/07/19 14:19:47;;;;;;;1.50;0.88;;;;;;;;;;5075943;28;20024;-90
2022/07/19 14:22:12;;;;;;;0.40;0.40;;;;;;;;;;5064562;28;20055;-89
2022/07/19 14:24:39;;;;;;;0.70;0.70;;;;;;;;;;5073706;28;20032;-90
2022/07/19 14:27:04;;;;;;;0.70;0.70;;;;;;;;;;5073047;28;20025;-88
2022/07/19 14:29:34;;;;;;;0.40;0.40;;;;;;;;;;5065337;28;20044;-88
2022/07/19 14:32:02;;;;;;;0.52;0.52;;;;;;;;;;5058575;28;20434;-87
2022/07/19 14:34:27;;;;;;;0.50;0.50;;;;;;;;;;5055091;28;20382;-90
2022/07/19 14:36:55;;;;;;;0.98;0.82;;;;;;;;;;5054651;28;20043;-90
2022/07/19 14:39:20;;;;;;;0.30;0.30;;;;;;;;;;5054144;28;20438;-90
2022/07/19 14:41:46;;;;;;;1.50;0.63;;;;;;;;;;5037433;28;20075;-90
2022/07/19 14:44:14;;;;;;;0.73;0.47;;;;;;;;;;5053617;28;20025;-91
2022/07/19 14:46:39;;;;;;;1.02;0.60;;;;;;;;;;5053647;28;20108;-89
2022/07/19 14:49:05;;;;;;;0.32;0.32;;;;;;;;;;5053959;28;20061;-91
2022/07/19 14:51:30;;;;;;;0.40;0.40;;;;;;;;;;5054539;28;20029;-89
2022/07/19 14:53:56;;;;;;;0.80;0.70;;;;;;;;;;5072784;28;20028;-90
2022/07/19 14:56:23;;;;;;;0.60;0.60;;;;;;;;;;5058595;28;20032;-91
2022/07/19 14:58:49;;;;;;;1.35;1.15;;;;;;;;;;5058138;28;20020;-86
2022/07/19 15:01:16;;;;;;;0.22;0.22;;;;;;;;;;5056486;28;20029;-90
2022/07/19 15:03:45;;;;;;;0.73;0.60;;;;;;;;;;5059120;28;20354;-91
2022/07/19 15:06:10;;;;;;;0.47;0.45;;;;;;;;;;5061198;28;20040;-88
2022/07/19 15:08:36;;;;;;;0.68;0.55;;;;;;;;;;5043838;28;20115;-90
2022/07/19 15:11:02;;;;;;;0.45;0.45;;;;;;;;;;5060650;28;20087;-91
2022/07/19 15:13:35;;;;;;;0.52;0.50;;;;;;;;;;5044112;28;20033;-90
2022/07/19 15:16:01;;;;;;;0.45;0.45;;;;;;;;;;5058311;28;20021;-89